Observations for BIRMINGHAM AIRPORT, United Kingdom (EGBB)

EGBB 221420Z 35009KT 9999 SCT032 13/05 Q1038
EGBB 221350Z 34009KT 9999 SCT032 12/05 Q1038
EGBB 221320Z 34012KT 9999 SCT034 13/04 Q1039
EGBB 221250Z 35011KT 9999 SCT036 13/03 Q1038
EGBB 221220Z 36010KT 320V030 9999 FEW036 13/03 Q1038
EGBB 221150Z 35011KT 9999 FEW036 12/03 Q1039
EGBB 221120Z 35011KT 9999 FEW036 12/03 Q1039
EGBB 221050Z 35010KT CAVOK 11/03 Q1039  
EGBB 221020Z 36008KT CAVOK 11/04 Q1039  
EGBB 220950Z 35008KT CAVOK 10/04 Q1039  
EGBB 220920Z 34009KT CAVOK 09/05 Q1039  
EGBB 220850Z 33007KT CAVOK 09/06 Q1038  
EGBB 220820Z 31005KT CAVOK 08/05 Q1038  
EGBB 220750Z 31006KT 9999 FEW030 07/05 Q1038
EGBB 220720Z 32006KT 9999 SCT028 06/04 Q1037
EGBB 220650Z 32002KT 9999 FEW035 05/03 Q1037
EGBB 220620Z 32004KT CAVOK 05/04 Q1036  
EGBB 220550Z 31003KT CAVOK 05/04 Q1036  
EGBB 220520Z 31001KT CAVOK 04/02 Q1036  
EGBB 220450Z VRB02KT CAVOK 05/03 Q1036  
EGBB 220420Z VRB01KT CAVOK 04/02 Q1035  
EGBB 220350Z 31002KT CAVOK 05/03 Q1035  
EGBB 220320Z 32003KT CAVOK 06/03 Q1035  
EGBB 220250Z 34003KT CAVOK 06/03 Q1035  
EGBB 220220Z 33004KT CAVOK 07/04 Q1035  
EGBB 220150Z 33005KT CAVOK 07/03 Q1034  
EGBB 220120Z 35006KT CAVOK 07/03 Q1034  
EGBB 220050Z 35007KT CAVOK 08/04 Q1034  
EGBB 220020Z 34009KT CAVOK 08/04 Q1034  
EGBB 212350Z 34008KT CAVOK 08/05 Q1033  
EGBB 212320Z 33007KT CAVOK 08/05 Q1033  
EGBB 212250Z 34009KT CAVOK 09/05 Q1033  
EGBB 212220Z 34010KT CAVOK 10/06 Q1033  
EGBB 212150Z 35011KT CAVOK 10/07 Q1032  
EGBB 212120Z 34011KT CAVOK 11/07 Q1032  
EGBB 212050Z 33011KT CAVOK 11/08 Q1031  
EGBB 212020Z 33011KT CAVOK 12/08 Q1031  
EGBB 211950Z 33011KT 9999 FEW020 11/08 Q1031
EGBB 211920Z 34010KT 9999 SCT020 12/08 Q1030
EGBB 211850Z 34012KT 9999 FEW020 SCT041 12/08 Q1030 
EGBB 211820Z 34013KT 9999 BKN039 12/09 Q1029
EGBB 211750Z 33014KT 9999 -RA SCT015 BKN030 13/10 Q1029 
EGBB 211720Z 34014KT 9999 FEW011 OVC020 14/11 Q1028 
EGBB 211650Z 31010KT 9999 BKN015 15/12 Q1027
EGBB 211620Z 30007KT 9999 BKN017 BKN023 16/12 Q1027 
EGBB 211550Z 29007KT 9999 BKN021 OVC033 16/12 Q1027 
EGBB 211520Z 31009KT 9999 OVC022 16/12 Q1027
EGBB 211450Z 30009KT 9999 OVC026 17/11 Q1026
EGBB 211420Z 28006KT 9999 BKN029 18/11 Q1026
EGBB 211350Z 27006KT 240V320 CAVOK 18/11 Q1026